createdAt,value
2022-09-26T00:01:40.889Z,6.85
2022-09-26T00:04:32.761Z,8.18
2022-09-26T00:07:01.517Z,7.85
2022-09-26T00:09:29.850Z,5.32
2022-09-26T00:11:58.138Z,5.70
2022-09-26T00:14:29.462Z,4.97
2022-09-26T00:16:58.171Z,6.75
2022-09-26T00:19:26.830Z,6.40
2022-09-26T00:21:55.055Z,7.35
2022-09-26T00:24:23.409Z,9.32
2022-09-26T00:26:51.532Z,10.85
2022-09-26T00:29:19.745Z,9.27
2022-09-26T00:31:47.823Z,9.20
2022-09-26T00:34:19.264Z,4.95
2022-09-26T00:36:49.468Z,8.32
2022-09-26T00:39:18.198Z,5.05
2022-09-26T00:41:46.631Z,5.53
2022-09-26T00:44:42.298Z,5.82
2022-09-26T00:47:35.702Z,13.27
2022-09-26T00:50:26.738Z,6.55
2022-09-26T00:53:05.151Z,5.60
2022-09-26T00:55:38.817Z,7.43
2022-09-26T00:58:32.247Z,3.35
2022-09-26T01:01:01.131Z,5.93
2022-09-26T01:03:32.004Z,6.07
2022-09-26T01:06:02.111Z,7.63
2022-09-26T01:08:35.629Z,11.80
2022-09-26T01:11:04.959Z,13.25
2022-09-26T01:13:36.322Z,7.27
2022-09-26T01:16:04.558Z,10.10
2022-09-26T01:18:34.064Z,12.60
2022-09-26T01:21:21.906Z,9.88
2022-09-26T01:24:09.046Z,13.73
2022-09-26T01:26:51.320Z,7.82
2022-09-26T01:32:21.079Z,11.80
2022-09-26T01:35:07.290Z,9.65
2022-09-26T01:38:01.267Z,5.05
2022-09-26T01:41:02.048Z,10.07
2022-09-26T01:43:50.045Z,9.48
2022-09-26T01:46:33.593Z,5.45
2022-09-26T01:49:22.598Z,7.95
2022-09-26T01:52:01.655Z,8.80
2022-09-26T01:54:37.473Z,8.32
2022-09-26T01:57:12.964Z,9.65
2022-09-26T01:59:55.382Z,6.82
2022-09-26T02:02:35.689Z,11.07
2022-09-26T02:05:23.154Z,12.68
2022-09-26T02:08:03.970Z,10.65
2022-09-26T02:10:36.883Z,12.15
2022-09-26T02:13:17.234Z,8.07
2022-09-26T02:15:51.237Z,6.32
2022-09-26T02:18:43.879Z,11.02
2022-09-26T02:21:24.082Z,10.97
2022-09-26T02:23:54.407Z,9.23
2022-09-26T02:26:24.580Z,11.63
2022-09-26T02:28:52.867Z,12.88
2022-09-26T02:31:25.069Z,5.22
2022-09-26T02:33:54.594Z,11.20
2022-09-26T02:36:26.178Z,11.82
2022-09-26T02:38:54.366Z,7.28
2022-09-26T02:42:08.893Z,9.63
2022-09-26T02:44:55.923Z,11.00
2022-09-26T02:47:50.905Z,11.38
2022-09-26T02:50:53.599Z,11.25
2022-09-26T02:53:50.633Z,7.70
2022-09-26T02:56:27.247Z,7.60
2022-09-26T02:59:11.197Z,13.23
2022-09-26T03:02:19.813Z,12.10
2022-09-26T03:05:16.138Z,10.02
2022-09-26T03:07:58.931Z,11.05
2022-09-26T03:10:30.786Z,9.77
2022-09-26T03:13:03.816Z,13.55
2022-09-26T03:15:35.073Z,9.02
2022-09-26T03:18:10.723Z,8.75
2022-09-26T03:20:39.171Z,14.82
2022-09-26T03:23:08.233Z,21.77
2022-09-26T03:25:36.514Z,11.90
2022-09-26T03:28:08.034Z,16.38
2022-09-26T03:30:36.382Z,15.07
2022-09-26T03:33:24.815Z,12.95
2022-09-26T03:35:53.042Z,19.83
2022-09-26T03:38:22.430Z,21.95
2022-09-26T03:41:00.698Z,15.00
2022-09-26T03:43:47.207Z,14.80
2022-09-26T03:46:16.167Z,13.93
2022-09-26T03:48:44.525Z,14.20
2022-09-26T03:51:14.640Z,12.60
2022-09-26T03:53:45.887Z,17.85
2022-09-26T03:56:21.535Z,13.70
2022-09-26T03:58:49.761Z,15.63
2022-09-26T04:01:21.073Z,17.77
2022-09-26T04:03:51.422Z,9.93
2022-09-26T04:06:21.137Z,11.75
2022-09-26T04:08:52.839Z,10.85
2022-09-26T04:11:23.939Z,12.80
2022-09-26T04:13:53.971Z,12.23
2022-09-26T04:16:29.830Z,15.30
2022-09-26T04:19:04.360Z,13.23
2022-09-26T04:21:32.838Z,12.63
2022-09-26T04:24:00.997Z,14.45
2022-09-26T04:26:29.725Z,15.95
2022-09-26T04:28:58.859Z,11.50
2022-09-26T04:31:50.239Z,13.05
2022-09-26T04:34:26.254Z,11.65
2022-09-26T04:36:55.535Z,15.98
2022-09-26T04:39:23.897Z,18.70
2022-09-26T04:41:52.157Z,13.10
2022-09-26T04:44:20.381Z,14.10
2022-09-26T04:46:48.762Z,10.50
2022-09-26T04:49:18.338Z,12.98
2022-09-26T04:51:47.874Z,14.60
2022-09-26T04:54:16.271Z,12.73
2022-09-26T04:56:45.021Z,10.60
2022-09-26T04:59:13.313Z,11.18
2022-09-26T05:02:04.102Z,8.50
2022-09-26T05:04:40.668Z,10.27
2022-09-26T05:07:09.098Z,15.15
2022-09-26T05:09:38.596Z,16.10
2022-09-26T05:12:11.429Z,11.25
2022-09-26T05:14:40.483Z,9.85
2022-09-26T05:17:09.135Z,11.80
2022-09-26T05:20:15.059Z,13.90
2022-09-26T05:22:41.777Z,17.27
2022-09-26T05:25:10.521Z,18.88
2022-09-26T05:27:40.026Z,11.27
2022-09-26T05:30:08.941Z,15.43
2022-09-26T05:32:37.200Z,15.45
2022-09-26T05:35:07.081Z,19.63
2022-09-26T05:37:40.582Z,17.13
2022-09-26T05:40:10.179Z,19.83
2022-09-26T05:42:42.797Z,14.32
2022-09-26T05:45:11.571Z,10.80
2022-09-26T05:47:40.125Z,16.02
2022-09-26T05:50:08.752Z,18.08
2022-09-26T05:52:39.414Z,19.20
2022-09-26T05:57:58.120Z,18.73
2022-09-26T06:00:31.553Z,14.85
2022-09-26T06:03:01.632Z,23.95
2022-09-26T06:05:38.702Z,24.20
2022-09-26T06:08:17.479Z,18.52
2022-09-26T06:10:50.216Z,16.17
2022-09-26T06:13:19.492Z,18.90
2022-09-26T06:15:51.458Z,13.98
2022-09-26T06:18:19.925Z,19.60
2022-09-26T06:20:48.214Z,19.70
2022-09-26T06:23:16.619Z,15.32
2022-09-26T06:25:47.076Z,17.55
2022-09-26T06:28:15.449Z,16.45
2022-09-26T06:30:43.663Z,14.95
2022-09-26T06:33:14.985Z,16.37
2022-09-26T06:36:03.260Z,13.20
2022-09-26T06:38:37.701Z,15.35
2022-09-26T06:41:09.987Z,20.90
2022-09-26T06:43:40.084Z,17.25
2022-09-26T06:46:11.481Z,16.38
2022-09-26T06:48:57.667Z,21.45
2022-09-26T06:51:42.885Z,23.38
2022-09-26T06:54:11.776Z,18.77
2022-09-26T06:56:39.911Z,21.13
2022-09-26T06:59:08.165Z,21.48
2022-09-26T07:01:44.791Z,33.95
2022-09-26T07:04:31.314Z,30.23
2022-09-26T07:07:23.402Z,33.05
2022-09-26T07:09:51.782Z,27.48
2022-09-26T07:12:40.681Z,30.98
2022-09-26T07:15:09.292Z,26.30
2022-09-26T07:17:37.572Z,31.10
2022-09-26T07:20:18.256Z,18.20
2022-09-26T07:23:11.380Z,22.27
2022-09-26T07:25:44.928Z,28.88
2022-09-26T07:28:14.424Z,25.95
2022-09-26T07:30:48.675Z,27.42
2022-09-26T07:33:28.084Z,29.30
2022-09-26T07:36:01.913Z,28.85
2022-09-26T07:38:32.722Z,31.30
2022-09-26T07:41:01.715Z,29.80
2022-09-26T07:44:04.447Z,28.38
2022-09-26T07:46:21.426Z,29.25
2022-09-26T07:48:52.867Z,28.77
2022-09-26T07:51:41.273Z,24.90
2022-09-26T07:54:14.366Z,26.13
2022-09-26T07:57:01.133Z,25.02
2022-09-26T07:59:42.263Z,21.20
2022-09-26T08:02:29.729Z,25.90
2022-09-26T08:05:01.028Z,19.27
2022-09-26T08:07:33.315Z,26.48
2022-09-26T08:10:20.523Z,28.33
2022-09-26T08:13:06.868Z,22.55
2022-09-26T08:15:43.262Z,25.70
2022-09-26T08:18:20.055Z,21.15
2022-09-26T08:20:49.800Z,20.48
2022-09-26T08:23:24.648Z,23.35
2022-09-26T08:26:13.134Z,27.52
2022-09-26T08:28:48.124Z,21.52
2022-09-26T08:31:18.033Z,24.30
2022-09-26T08:33:47.635Z,26.27
2022-09-26T08:36:16.217Z,20.48
2022-09-26T08:39:03.111Z,21.48
2022-09-26T08:41:52.519Z,20.42
2022-09-26T08:45:04.576Z,18.92
2022-09-26T08:48:23.087Z,22.05
2022-09-26T08:51:28.843Z,19.27
2022-09-26T08:54:19.484Z,18.65
2022-09-26T08:56:54.971Z,17.05
2022-09-26T08:59:44.350Z,21.30
2022-09-26T09:02:26.569Z,23.67
2022-09-26T09:05:11.185Z,24.25
2022-09-26T09:10:19.023Z,15.45
2022-09-26T09:13:31.768Z,23.67
2022-09-26T09:16:33.485Z,17.48
2022-09-26T09:19:19.314Z,13.30
2022-09-26T09:22:41.072Z,20.10
2022-09-26T09:25:29.265Z,21.90
2022-09-26T09:28:17.318Z,25.98
2022-09-26T09:31:04.722Z,23.98
2022-09-26T09:33:46.692Z,29.45
2022-09-26T09:36:45.614Z,30.15
2022-09-26T09:39:46.047Z,29.40
2022-09-26T09:42:46.581Z,27.13
2022-09-26T09:45:18.662Z,17.48
2022-09-26T09:47:47.402Z,24.63
2022-09-26T09:50:27.086Z,18.10
2022-09-26T09:53:01.670Z,16.83
2022-09-26T09:55:53.324Z,23.35
2022-09-26T09:58:24.559Z,20.27
2022-09-26T10:01:19.925Z,17.98
2022-09-26T10:04:14.221Z,26.02
2022-09-26T10:06:46.120Z,21.70
2022-09-26T10:09:35.319Z,19.60
2022-09-26T10:12:28.827Z,17.67
2022-09-26T10:15:24.104Z,20.25
2022-09-26T10:18:24.781Z,22.33
2022-09-26T10:21:15.200Z,15.70
2022-09-26T10:23:47.975Z,22.65
2022-09-26T10:26:41.948Z,22.48
2022-09-26T10:29:29.777Z,17.10
2022-09-26T10:31:59.131Z,20.95
2022-09-26T10:34:32.924Z,16.58
2022-09-26T10:37:24.490Z,25.88
2022-09-26T10:40:17.020Z,17.20
2022-09-26T10:42:46.238Z,18.25
2022-09-26T10:45:20.078Z,24.27
2022-09-26T10:48:08.690Z,23.05
2022-09-26T10:50:56.965Z,18.08
2022-09-26T10:53:56.063Z,17.27
2022-09-26T10:56:29.934Z,19.92
2022-09-26T10:59:03.579Z,21.92
2022-09-26T11:01:33.340Z,22.58
2022-09-26T11:04:17.652Z,21.63
2022-09-26T11:07:19.234Z,24.17
2022-09-26T11:10:02.611Z,20.65
2022-09-26T11:13:21.125Z,17.17
2022-09-26T11:15:58.959Z,16.38
2022-09-26T11:18:42.756Z,22.40
2022-09-26T11:21:29.180Z,16.63
2022-09-26T11:24:08.025Z,19.85
2022-09-26T11:27:20.698Z,17.08
2022-09-26T11:32:44.529Z,14.02
2022-09-26T11:35:34.210Z,13.35
2022-09-26T11:38:26.772Z,14.35
2022-09-26T11:41:04.283Z,31.80
2022-09-26T11:44:04.322Z,21.48
2022-09-26T11:47:51.533Z,14.48
2022-09-26T11:50:56.272Z,32.08
2022-09-26T11:53:56.820Z,19.48
2022-09-26T11:56:42.891Z,21.65
2022-09-26T11:59:33.265Z,15.32
2022-09-26T12:02:38.213Z,24.60
2022-09-26T12:05:37.927Z,25.83
2022-09-26T12:08:06.311Z,15.55
2022-09-26T12:10:51.525Z,22.20
2022-09-26T12:13:56.438Z,18.13
2022-09-26T12:16:27.763Z,17.63
2022-09-26T12:19:16.683Z,15.82
2022-09-26T12:21:58.465Z,22.70
2022-09-26T12:24:52.820Z,22.02
2022-09-26T12:27:47.037Z,16.17
2022-09-26T12:30:20.929Z,18.17
2022-09-26T12:32:57.685Z,26.63
2022-09-26T12:35:44.404Z,22.85
2022-09-26T12:38:21.843Z,9.55
2022-09-26T12:41:27.268Z,11.15
2022-09-26T12:44:16.256Z,17.38
2022-09-26T12:46:47.897Z,16.35
2022-09-26T12:49:19.328Z,13.65
2022-09-26T12:51:54.209Z,16.73
2022-09-26T12:55:11.311Z,13.00
2022-09-26T12:57:57.507Z,7.57
2022-09-26T13:00:26.088Z,7.65
2022-09-26T13:03:12.659Z,6.85
2022-09-26T13:06:06.398Z,6.85
2022-09-26T13:08:51.377Z,10.10
2022-09-26T13:11:24.425Z,7.25
2022-09-26T13:14:34.002Z,7.63
2022-09-26T13:17:06.480Z,10.43
2022-09-26T13:19:39.947Z,11.88
2022-09-26T13:22:29.225Z,8.93
2022-09-26T13:25:12.569Z,10.93
2022-09-26T13:28:14.548Z,14.55
2022-09-26T13:31:03.298Z,14.07
2022-09-26T13:33:38.246Z,16.75
2022-09-26T13:36:09.752Z,10.13
2022-09-26T13:38:56.910Z,10.57
2022-09-26T13:41:31.551Z,11.80
2022-09-26T13:44:00.159Z,14.43
2022-09-26T13:46:34.239Z,15.57
2022-09-26T13:49:39.715Z,13.30
2022-09-26T13:52:29.565Z,13.40
2022-09-26T13:55:13.725Z,11.77
2022-09-26T13:58:21.543Z,7.82
2022-09-26T14:00:50.051Z,10.13
2022-09-26T14:03:18.454Z,9.55
2022-09-26T14:05:52.507Z,11.35
2022-09-26T14:08:31.269Z,8.15
2022-09-26T14:11:12.886Z,8.85
2022-09-26T14:13:41.347Z,11.60
2022-09-26T14:16:39.034Z,7.30
2022-09-26T14:19:15.284Z,8.90
2022-09-26T14:22:05.290Z,13.30
2022-09-26T14:24:40.348Z,9.85
2022-09-26T14:27:11.284Z,6.53
2022-09-26T14:29:39.694Z,9.00
2022-09-26T14:32:10.798Z,11.25
2022-09-26T14:34:39.304Z,12.45
2022-09-26T14:37:23.725Z,10.25
2022-09-26T14:39:58.892Z,13.15
2022-09-26T14:42:40.163Z,7.60
2022-09-26T14:45:24.254Z,13.18
2022-09-26T14:48:27.752Z,13.38
2022-09-26T14:51:04.930Z,16.17
2022-09-26T14:53:55.693Z,15.05
2022-09-26T14:56:28.401Z,11.98
2022-09-26T14:59:47.521Z,11.03
2022-09-26T15:02:17.002Z,14.55
2022-09-26T15:04:50.408Z,12.88
2022-09-26T15:07:27.405Z,12.52
2022-09-26T15:10:08.623Z,11.38
2022-09-26T15:12:51.026Z,10.65
2022-09-26T15:17:52.994Z,14.73
2022-09-26T15:20:24.095Z,20.77
2022-09-26T15:22:54.599Z,18.48
2022-09-26T15:25:26.597Z,15.10
2022-09-26T15:30:42.515Z,10.98
2022-09-26T15:33:17.911Z,10.82
2022-09-26T15:35:55.921Z,10.25
2022-09-26T15:38:24.974Z,13.65
2022-09-26T15:41:03.785Z,14.82
2022-09-26T15:43:35.960Z,14.65
2022-09-26T15:46:09.068Z,13.35
2022-09-26T15:48:44.773Z,14.68
2022-09-26T15:51:21.615Z,9.10
2022-09-26T15:53:58.241Z,5.78
2022-09-26T15:56:52.785Z,8.07
2022-09-26T15:59:27.210Z,9.23
2022-09-26T16:01:56.161Z,9.85
2022-09-26T16:04:30.266Z,6.35
2022-09-26T16:07:01.080Z,6.38
2022-09-26T16:09:33.757Z,9.75
2022-09-26T16:12:04.867Z,9.95
2022-09-26T16:14:40.517Z,10.55
2022-09-26T16:17:11.932Z,7.10
2022-09-26T16:19:50.045Z,6.80
2022-09-26T16:22:37.142Z,6.93
2022-09-26T16:25:33.201Z,10.02
2022-09-26T16:28:09.778Z,7.75
2022-09-26T16:30:54.119Z,8.85
2022-09-26T16:33:35.371Z,8.65
2022-09-26T16:36:09.912Z,15.75
2022-09-26T16:38:38.465Z,42.53
2022-09-26T16:42:00.031Z,45.22
2022-09-26T16:44:42.894Z,12.38
2022-09-26T16:47:43.515Z,14.15
2022-09-26T16:50:33.540Z,15.95
2022-09-26T16:53:02.541Z,10.95
2022-09-26T16:55:34.170Z,12.98
2022-09-26T16:58:06.599Z,5.53
2022-09-26T17:00:36.017Z,6.60
2022-09-26T17:03:16.052Z,10.88
2022-09-26T17:05:44.646Z,12.07
2022-09-26T17:08:12.863Z,11.57
2022-09-26T17:10:41.201Z,7.10
2022-09-26T17:13:16.166Z,13.98
2022-09-26T17:15:46.589Z,10.38
2022-09-26T17:18:19.518Z,9.68
2022-09-26T17:20:49.216Z,9.52
2022-09-26T17:23:38.882Z,12.82
2022-09-26T17:26:06.786Z,13.05
2022-09-26T17:28:39.303Z,7.47
2022-09-26T17:31:09.109Z,7.93
2022-09-26T17:33:41.536Z,10.80
2022-09-26T17:36:17.316Z,9.35
2022-09-26T17:38:45.579Z,7.35
2022-09-26T17:41:13.820Z,7.72
2022-09-26T17:43:42.338Z,10.07
2022-09-26T17:46:16.178Z,14.32
2022-09-26T17:48:45.478Z,11.30
2022-09-26T17:51:13.827Z,8.05
2022-09-26T17:53:50.123Z,9.65
2022-09-26T17:56:20.547Z,4.93
2022-09-26T17:58:50.174Z,9.45
2022-09-26T18:01:38.508Z,9.30
2022-09-26T18:04:09.450Z,10.50
2022-09-26T18:06:38.440Z,9.73
2022-09-26T18:09:06.870Z,8.30
2022-09-26T18:11:35.587Z,7.50
2022-09-26T18:14:06.569Z,12.23
2022-09-26T18:16:34.882Z,11.50
2022-09-26T18:19:10.417Z,14.57
2022-09-26T18:21:38.822Z,10.82
2022-09-26T18:24:12.450Z,19.48
2022-09-26T18:26:47.511Z,17.67
2022-09-26T18:29:37.794Z,14.55
2022-09-26T18:32:12.528Z,26.98
2022-09-26T18:34:40.937Z,43.92
2022-09-26T18:37:09.704Z,44.70
2022-09-26T18:39:37.970Z,31.52
2022-09-26T18:42:07.990Z,19.58
2022-09-26T18:44:36.806Z,20.85
2022-09-26T18:47:11.548Z,19.10
2022-09-26T18:49:39.982Z,21.45
2022-09-26T18:52:16.843Z,21.00
2022-09-26T18:54:46.616Z,14.82
2022-09-26T18:57:14.900Z,20.48
2022-09-26T18:59:43.350Z,17.10
2022-09-26T19:02:25.165Z,18.42
2022-09-26T19:04:56.655Z,20.67
2022-09-26T19:07:25.287Z,17.13
2022-09-26T19:09:53.708Z,21.92
2022-09-26T19:12:21.863Z,23.63
2022-09-26T19:14:50.146Z,25.52
2022-09-26T19:17:18.434Z,23.25
2022-09-26T19:19:46.729Z,22.40
2022-09-26T19:22:18.115Z,17.67
2022-09-26T19:24:56.715Z,22.40
2022-09-26T19:27:33.527Z,28.35
2022-09-26T19:30:15.781Z,19.75
2022-09-26T19:32:52.479Z,28.50
2022-09-26T19:35:30.703Z,15.77
2022-09-26T19:38:04.960Z,20.60
2022-09-26T19:40:33.437Z,22.30
2022-09-26T19:43:01.749Z,23.80
2022-09-26T19:45:32.241Z,26.30
2022-09-26T19:48:00.724Z,28.02
2022-09-26T19:50:30.199Z,26.45
2022-09-26T19:52:59.087Z,36.70
2022-09-26T19:55:30.336Z,30.55
2022-09-26T19:58:03.353Z,44.93
2022-09-26T20:00:31.643Z,38.72
2022-09-26T20:02:59.819Z,39.13
2022-09-26T20:05:28.197Z,38.00
2022-09-26T20:07:56.591Z,38.00
2022-09-26T20:10:25.461Z,27.88
2022-09-26T20:12:54.025Z,30.17
2022-09-26T20:15:22.565Z,33.78
2022-09-26T20:17:51.009Z,37.20
2022-09-26T20:20:24.627Z,29.45
2022-09-26T20:22:54.949Z,33.45
2022-09-26T20:25:30.215Z,26.08
2022-09-26T20:27:59.597Z,26.58
2022-09-26T20:30:28.401Z,23.63
2022-09-26T20:32:56.745Z,25.05
2022-09-26T20:35:26.677Z,26.30
2022-09-26T20:38:05.159Z,24.45
2022-09-26T20:40:34.777Z,18.63
2022-09-26T20:43:09.547Z,24.10
2022-09-26T20:45:40.239Z,25.77
2022-09-26T20:48:18.407Z,24.65
2022-09-26T20:50:46.909Z,22.30
2022-09-26T20:53:24.395Z,23.33
2022-09-26T20:55:53.900Z,20.33
2022-09-26T20:58:22.582Z,18.95
2022-09-26T21:00:51.329Z,24.63
2022-09-26T21:03:20.276Z,23.92
2022-09-26T21:05:48.832Z,18.52
2022-09-26T21:08:28.101Z,22.92
2022-09-26T21:10:56.989Z,21.80
2022-09-26T21:13:25.356Z,22.52
2022-09-26T21:15:54.104Z,20.42
2022-09-26T21:18:29.192Z,20.80
2022-09-26T21:21:06.270Z,13.30
2022-09-26T21:23:49.935Z,20.13
2022-09-26T21:26:23.427Z,20.85
2022-09-26T21:28:53.271Z,18.50
2022-09-26T21:31:26.655Z,19.33
2022-09-26T21:33:57.893Z,15.77
2022-09-26T21:36:34.946Z,17.80
2022-09-26T21:39:04.241Z,13.65
2022-09-26T21:41:32.853Z,14.18
2022-09-26T21:44:06.681Z,18.92
2022-09-26T21:46:35.173Z,19.23
2022-09-26T21:49:03.697Z,19.48
2022-09-26T21:51:32.573Z,18.77
2022-09-26T21:54:06.249Z,22.33
2022-09-26T21:56:38.886Z,35.60
2022-09-26T21:59:07.889Z,26.83
2022-09-26T22:01:36.194Z,17.52
2022-09-26T22:04:04.598Z,16.10
2022-09-26T22:06:34.413Z,20.35
2022-09-26T22:09:02.976Z,23.33
2022-09-26T22:11:31.225Z,21.35
2022-09-26T22:13:59.639Z,22.83
2022-09-26T22:16:28.077Z,21.38
2022-09-26T22:18:56.385Z,15.52
2022-09-26T22:21:24.831Z,17.70
2022-09-26T22:23:53.346Z,15.55
2022-09-26T22:26:21.966Z,16.73
2022-09-26T22:28:50.410Z,12.57
2022-09-26T22:31:19.049Z,23.48
2022-09-26T22:33:47.465Z,18.52
2022-09-26T22:36:15.767Z,17.65
2022-09-26T22:38:44.293Z,17.38
2022-09-26T22:41:12.702Z,18.15
2022-09-26T22:43:40.915Z,15.65
2022-09-26T22:46:11.541Z,23.50
2022-09-26T22:48:47.363Z,17.55
2022-09-26T22:51:17.529Z,14.27
2022-09-26T22:53:46.234Z,16.65
2022-09-26T22:56:15.586Z,21.55
2022-09-26T22:58:52.671Z,20.92
2022-09-26T23:01:24.162Z,17.50
2022-09-26T23:03:53.018Z,17.70
2022-09-26T23:06:24.285Z,26.55
2022-09-26T23:08:53.051Z,16.65
2022-09-26T23:11:21.707Z,24.15
2022-09-26T23:13:52.245Z,17.65
2022-09-26T23:16:23.347Z,18.30
2022-09-26T23:18:52.482Z,16.08
2022-09-26T23:21:25.978Z,18.52
2022-09-26T23:23:56.962Z,17.55
2022-09-26T23:26:30.816Z,26.35
2022-09-26T23:28:59.887Z,23.33
2022-09-26T23:31:29.059Z,15.98
2022-09-26T23:33:57.910Z,14.23
2022-09-26T23:36:26.185Z,17.30
2022-09-26T23:38:54.614Z,16.33
2022-09-26T23:41:23.085Z,17.85
2022-09-26T23:43:51.506Z,19.25
2022-09-26T23:46:19.913Z,15.43
2022-09-26T23:48:48.214Z,15.32
2022-09-26T23:51:16.831Z,20.42
2022-09-26T23:53:45.095Z,15.98
2022-09-26T23:56:15.099Z,18.40
2022-09-26T23:58:43.710Z,19.88
